createdAt,value
2022-08-12T00:02:12.258Z,8.30
2022-08-12T00:05:13.129Z,8.23
2022-08-12T00:08:06.599Z,8.02
2022-08-12T00:10:59.053Z,8.93
2022-08-12T00:14:09.351Z,10.52
2022-08-12T00:17:03.993Z,9.43
2022-08-12T00:19:52.654Z,11.60
2022-08-12T00:22:45.203Z,14.05
2022-08-12T00:25:51.186Z,14.63
2022-08-12T00:28:51.040Z,18.15
2022-08-12T00:31:39.980Z,21.25
2022-08-12T00:34:33.100Z,21.02
2022-08-12T00:37:18.797Z,23.50
2022-08-12T00:40:12.176Z,23.63
2022-08-12T00:42:42.854Z,24.40
2022-08-12T00:45:10.648Z,25.65
2022-08-12T00:50:18.679Z,28.92
2022-08-12T00:52:54.155Z,28.75
2022-08-12T00:55:21.442Z,25.48
2022-08-12T00:57:49.901Z,28.60
2022-08-12T01:00:34.157Z,31.08
2022-08-12T01:03:02.444Z,30.90
2022-08-12T01:05:57.176Z,30.88
2022-08-12T01:08:42.903Z,34.75
2022-08-12T01:11:36.131Z,34.08
2022-08-12T01:14:04.263Z,34.65
2022-08-12T01:16:31.552Z,34.85
2022-08-12T01:19:05.139Z,32.67
2022-08-12T01:21:50.002Z,35.67
2022-08-12T01:24:37.523Z,37.17
2022-08-12T01:27:12.036Z,35.35
2022-08-12T01:29:50.155Z,32.83
2022-08-12T01:32:19.542Z,32.70
2022-08-12T01:34:58.231Z,31.45
2022-08-12T01:37:25.792Z,36.08
2022-08-12T01:42:51.163Z,33.42
2022-08-12T01:48:11.162Z,25.30
2022-08-12T01:50:47.014Z,30.98
2022-08-12T01:53:23.107Z,29.77
2022-08-12T01:55:50.912Z,30.65
2022-08-12T01:59:01.296Z,28.17
2022-08-12T02:01:34.319Z,32.53
2022-08-12T02:04:38.221Z,30.33
2022-08-12T02:07:23.870Z,36.15
2022-08-12T02:10:49.845Z,30.38
2022-08-12T02:13:14.874Z,30.77
2022-08-12T02:15:53.100Z,32.88
2022-08-12T02:21:01.004Z,31.60
2022-08-12T02:23:29.248Z,32.25
2022-08-12T02:26:13.133Z,32.35
2022-08-12T02:28:40.354Z,30.92
2022-08-12T02:31:08.955Z,34.75
2022-08-12T02:33:51.071Z,32.30
2022-08-12T02:36:23.818Z,24.60
2022-08-12T02:39:00.080Z,31.42
2022-08-12T02:41:27.895Z,33.22
2022-08-12T02:44:06.956Z,33.97
2022-08-12T02:46:34.831Z,35.70
2022-08-12T02:49:05.241Z,39.85
2022-08-12T02:51:46.252Z,37.63
2022-08-12T02:54:13.614Z,36.20
2022-08-12T02:56:41.984Z,28.67
2022-08-12T02:59:27.339Z,36.67
2022-08-12T03:01:55.959Z,37.67
2022-08-12T03:04:45.860Z,33.25
2022-08-12T03:07:21.041Z,38.92
2022-08-12T03:10:04.398Z,38.53
2022-08-12T03:12:35.794Z,35.35
2022-08-12T03:15:22.437Z,38.58
2022-08-12T03:18:27.298Z,36.45
2022-08-12T03:20:52.981Z,38.53
2022-08-12T03:23:30.166Z,35.15
2022-08-12T03:26:13.084Z,37.30
2022-08-12T03:28:54.443Z,39.03
2022-08-12T03:31:31.100Z,43.00
2022-08-12T03:34:03.066Z,40.92
2022-08-12T03:36:43.041Z,43.50
2022-08-12T03:39:17.776Z,40.03
2022-08-12T03:41:58.301Z,37.55
2022-08-12T03:44:59.483Z,41.50
2022-08-12T03:47:59.252Z,31.88
2022-08-12T03:50:45.880Z,38.95
2022-08-12T03:53:39.151Z,56.72
2022-08-12T03:56:25.232Z,52.85
2022-08-12T03:59:19.221Z,44.33
2022-08-12T04:01:52.655Z,45.70
2022-08-12T04:04:30.593Z,49.25
2022-08-12T04:06:58.195Z,64.47
2022-08-12T04:12:18.255Z,56.65
2022-08-12T04:14:45.487Z,34.60
2022-08-12T04:17:13.061Z,52.17
2022-08-12T04:19:47.301Z,53.53
2022-08-12T04:22:15.232Z,51.97
2022-08-12T04:25:03.299Z,51.88
2022-08-12T04:27:32.091Z,45.15
2022-08-12T04:30:21.161Z,40.13
2022-08-12T04:32:56.190Z,38.05
2022-08-12T04:35:23.339Z,38.55
2022-08-12T04:37:59.780Z,35.30
2022-08-12T04:40:36.092Z,33.55
2022-08-12T04:43:03.703Z,34.13
2022-08-12T04:48:08.177Z,30.85
2022-08-12T04:50:37.141Z,30.50
2022-08-12T04:53:15.222Z,28.73
2022-08-12T04:55:43.011Z,28.25
2022-08-12T04:58:10.525Z,25.35
2022-08-12T05:03:12.423Z,25.35
2022-08-12T05:05:40.661Z,23.65
2022-08-12T05:08:24.245Z,22.92
2022-08-12T05:10:51.723Z,20.92
2022-08-12T05:16:04.899Z,20.38
2022-08-12T05:18:45.805Z,19.13
2022-08-12T05:21:21.268Z,18.65
2022-08-12T05:23:48.517Z,16.65
2022-08-12T05:26:29.276Z,16.67
2022-08-12T05:28:56.554Z,15.52
2022-08-12T05:31:42.603Z,11.02
2022-08-12T05:34:28.583Z,13.85
2022-08-12T05:36:58.133Z,13.73
2022-08-12T05:41:59.500Z,13.88
2022-08-12T05:44:26.680Z,11.60
2022-08-12T05:47:00.036Z,10.48
2022-08-12T05:49:28.670Z,11.65
2022-08-12T05:51:56.331Z,10.73
2022-08-12T05:54:47.616Z,9.50
2022-08-12T05:57:17.601Z,8.20
2022-08-12T05:59:51.122Z,9.82
2022-08-12T06:02:18.320Z,8.05
2022-08-12T06:04:45.588Z,7.65
2022-08-12T06:08:00.278Z,6.68
2022-08-12T06:10:07.463Z,6.45
2022-08-12T06:12:48.538Z,6.88
2022-08-12T06:15:17.538Z,6.53
2022-08-12T06:17:51.193Z,7.28
2022-08-12T06:20:28.833Z,5.85
2022-08-12T06:23:04.167Z,5.57
2022-08-12T06:25:38.305Z,5.18
2022-08-12T06:28:21.147Z,5.30
2022-08-12T06:31:14.818Z,4.55
2022-08-12T06:33:55.389Z,5.25
2022-08-12T06:36:36.777Z,4.50
2022-08-12T06:39:15.437Z,4.57
2022-08-12T06:42:31.965Z,4.53
2022-08-12T06:44:57.279Z,3.72
2022-08-12T06:47:24.739Z,4.68
2022-08-12T06:49:53.573Z,4.20
2022-08-12T06:52:31.175Z,3.67
2022-08-12T06:54:59.875Z,3.90
2022-08-12T06:57:57.370Z,3.70
2022-08-12T07:00:32.844Z,4.05
2022-08-12T07:03:22.769Z,3.63
2022-08-12T07:05:55.306Z,3.20
2022-08-12T07:08:23.778Z,3.58
2022-08-12T07:11:05.319Z,3.17
2022-08-12T07:14:02.199Z,2.95
2022-08-12T07:16:55.383Z,3.30
2022-08-12T07:19:22.594Z,3.15
2022-08-12T07:22:01.848Z,2.60
2022-08-12T07:24:36.254Z,2.72
2022-08-12T07:27:10.091Z,2.72
2022-08-12T07:30:00.051Z,2.80
2022-08-12T07:32:31.450Z,2.47
2022-08-12T07:35:05.336Z,2.22
2022-08-12T07:37:33.534Z,2.10
2022-08-12T07:40:01.394Z,2.50
2022-08-12T07:42:36.280Z,2.30
2022-08-12T07:45:04.660Z,2.38
2022-08-12T07:47:31.818Z,2.13
2022-08-12T07:50:16.928Z,2.35
2022-08-12T07:52:48.392Z,1.95
2022-08-12T07:55:25.129Z,2.35
2022-08-12T07:58:03.623Z,2.65
2022-08-12T08:00:39.255Z,2.33
2022-08-12T08:03:08.863Z,2.17
2022-08-12T08:05:53.075Z,2.20
2022-08-12T08:08:30.508Z,2.33
2022-08-12T08:11:26.244Z,2.30
2022-08-12T08:13:53.561Z,1.98
2022-08-12T08:16:20.694Z,2.33
2022-08-12T08:18:54.263Z,2.70
2022-08-12T08:21:21.951Z,1.98
2022-08-12T08:24:22.024Z,1.90
2022-08-12T08:27:01.116Z,2.20
2022-08-12T08:32:07.736Z,2.00
2022-08-12T08:34:52.937Z,1.80
2022-08-12T08:37:22.174Z,2.30
2022-08-12T08:39:57.176Z,2.10
2022-08-12T08:42:40.654Z,1.65
2022-08-12T08:45:19.358Z,2.03
2022-08-12T08:47:46.781Z,1.98
2022-08-12T08:52:51.340Z,1.90
2022-08-12T08:55:24.077Z,1.77
2022-08-12T08:58:02.209Z,1.88
2022-08-12T09:00:30.379Z,2.28
2022-08-12T09:02:59.099Z,1.90
2022-08-12T09:06:01.998Z,2.10
2022-08-12T09:08:23.118Z,1.88
2022-08-12T09:14:18.631Z,2.22
2022-08-12T09:16:53.237Z,1.58
2022-08-12T09:19:27.653Z,1.77
2022-08-12T09:25:25.258Z,1.90
2022-08-12T09:28:03.969Z,1.95
2022-08-12T09:30:42.048Z,1.80
2022-08-12T09:33:19.192Z,1.83
2022-08-12T09:36:05.584Z,1.98
2022-08-12T09:38:58.570Z,1.70
2022-08-12T09:42:33.198Z,1.80
2022-08-12T09:44:43.358Z,2.05
2022-08-12T09:47:20.013Z,1.70
2022-08-12T09:50:05.302Z,2.22
2022-08-12T09:52:32.553Z,2.03
2022-08-12T09:55:02.353Z,1.70
2022-08-12T09:58:45.078Z,1.83
2022-08-12T10:00:29.262Z,1.90
2022-08-12T10:03:32.582Z,1.65
2022-08-12T10:06:26.487Z,1.67
2022-08-12T10:08:55.385Z,1.60
2022-08-12T10:12:10.475Z,1.52
2022-08-12T10:14:37.066Z,1.60
2022-08-12T10:17:09.014Z,1.30
2022-08-12T10:19:51.762Z,1.33
2022-08-12T18:55:18.809Z,1.17
2022-08-12T18:58:07.129Z,1.40
2022-08-12T19:00:43.626Z,1.00
2022-08-12T19:03:38.943Z,1.20
2022-08-12T19:06:20.038Z,1.08
2022-08-12T19:08:49.355Z,1.45
2022-08-12T19:11:43.975Z,1.02
2022-08-12T19:14:27.487Z,1.30
2022-08-12T19:17:02.463Z,1.20
2022-08-12T19:19:37.238Z,1.20
2022-08-12T19:22:15.431Z,1.13
2022-08-12T19:25:15.958Z,1.33
2022-08-12T19:27:53.526Z,1.60
2022-08-12T19:30:45.361Z,1.40
2022-08-12T19:33:20.566Z,1.55
2022-08-12T19:36:08.150Z,1.30
2022-08-12T19:38:46.664Z,1.27
2022-08-12T19:41:23.696Z,1.30
2022-08-12T19:44:18.473Z,1.40
2022-08-12T19:46:51.960Z,1.50
2022-08-12T19:49:27.613Z,1.50
2022-08-12T19:52:03.411Z,1.27
2022-08-12T19:54:38.596Z,1.40
2022-08-12T19:57:18.808Z,1.45
2022-08-12T20:00:03.562Z,1.77
2022-08-12T20:02:34.619Z,1.33
2022-08-12T20:06:04.471Z,1.58
2022-08-12T20:07:59.471Z,1.60
2022-08-12T20:10:39.579Z,1.48
2022-08-12T20:13:18.967Z,1.33
2022-08-12T20:16:00.711Z,1.60
2022-08-12T20:18:44.602Z,1.50
2022-08-12T20:21:25.538Z,1.70
2022-08-12T20:24:10.675Z,1.50
2022-08-12T20:26:48.287Z,1.50
2022-08-12T20:31:44.069Z,1.70
2022-08-12T20:34:18.770Z,1.77
2022-08-12T20:36:47.547Z,1.88
2022-08-12T20:39:56.570Z,1.88
2022-08-12T20:42:23.887Z,1.60
2022-08-12T20:44:58.714Z,1.60
2022-08-12T20:47:25.983Z,1.80
2022-08-12T20:50:16.764Z,1.80
2022-08-12T20:52:48.532Z,2.15
2022-08-12T20:55:19.458Z,1.90
2022-08-12T20:58:02.005Z,1.77
2022-08-12T21:00:33.225Z,1.60
2022-08-12T21:06:40.495Z,1.90
2022-08-12T21:09:14.454Z,1.60
2022-08-12T21:11:42.476Z,2.42
2022-08-12T21:14:13.371Z,1.98
2022-08-12T21:16:52.485Z,2.00
2022-08-12T21:19:22.236Z,1.60
2022-08-12T21:22:00.732Z,1.85
2022-08-12T21:24:32.281Z,1.70
2022-08-12T21:27:17.154Z,1.83
2022-08-12T21:29:55.372Z,2.00
2022-08-12T21:32:39.144Z,2.20
2022-08-12T21:35:19.170Z,2.03
2022-08-12T21:37:55.677Z,2.10
2022-08-12T21:43:14.677Z,2.05
2022-08-12T21:48:24.558Z,2.22
2022-08-12T21:50:53.305Z,2.28
2022-08-12T21:53:23.731Z,2.28
2022-08-12T21:56:34.021Z,2.55
2022-08-12T21:59:14.705Z,2.42
2022-08-12T22:01:49.608Z,2.30
2022-08-12T22:04:38.165Z,2.20
2022-08-12T22:07:12.700Z,2.40
2022-08-12T22:09:45.669Z,2.30
2022-08-12T22:12:39.834Z,2.50
2022-08-12T22:15:07.848Z,2.33
2022-08-12T22:17:50.161Z,2.60
2022-08-12T22:20:29.641Z,2.40
2022-08-12T22:23:00.290Z,2.80
2022-08-12T22:25:45.352Z,2.55
2022-08-12T22:28:38.996Z,2.63
2022-08-12T22:31:15.588Z,2.83
2022-08-12T22:33:54.604Z,2.75
2022-08-12T22:36:34.597Z,2.88
2022-08-12T22:39:02.009Z,2.80
2022-08-12T22:41:57.648Z,2.80
2022-08-12T22:44:54.215Z,2.72
2022-08-12T22:47:54.352Z,2.80
2022-08-12T22:50:28.521Z,2.95
2022-08-12T22:53:20.713Z,2.67
2022-08-12T22:56:00.474Z,3.00
2022-08-12T22:58:46.949Z,2.90
2022-08-12T23:01:50.216Z,3.15
2022-08-12T23:04:10.256Z,2.83
2022-08-12T23:06:38.060Z,3.35
2022-08-12T23:09:06.628Z,3.10
2022-08-12T23:11:41.081Z,3.10
2022-08-12T23:14:11.527Z,3.20
2022-08-12T23:16:39.502Z,3.20
2022-08-12T23:19:18.089Z,3.30
2022-08-12T23:22:05.989Z,3.33
2022-08-12T23:24:56.386Z,2.90
2022-08-12T23:27:56.140Z,3.20
2022-08-12T23:30:34.893Z,3.30
2022-08-12T23:33:19.766Z,3.50
2022-08-12T23:36:02.806Z,3.17
2022-08-12T23:38:32.556Z,3.13
2022-08-12T23:41:12.557Z,3.45
2022-08-12T23:43:42.826Z,3.40
2022-08-12T23:46:25.808Z,3.47
2022-08-12T23:48:54.210Z,3.50
2022-08-12T23:51:32.287Z,3.22
2022-08-12T23:54:03.051Z,3.08
2022-08-12T23:56:47.807Z,3.67
2022-08-12T23:59:29.842Z,3.95
